Seastreak Highlands — WDE4031 — position and weather

sailwx.info

Track history (hours):
 
Tides and Currents Weather Stations Pressure Air Temp Water Temp Dewpoint Dewpoint Depression Visibility Wind Speed Wind Dir Waves Ship Positions

Seastreak Highlands

Owner: Seastreak llc, atlantic highlands, NJ. More information available from US FCC via Universal Licensing System and Coast Guard Vessel Documentation Center.

Last reported at 2016-Jul-01 00:10 UTC. Time now 2016-Jul-01 08:18 UTC.
Position N 40°33' W 074°02'.

Length 44 m.

Type: High speed craft. MMSI: 367347670.

Date/timePositionNaut miles runAvg speedWind from/ knotsBaromVisibWave heightAir tempDewpointWater temp
2016-Jul-01 00:10N 40°33' W 074°02'1219.7
2016-Jun-30 23:33N 40°45' W 073°58'3 1.5
2016-Jun-30 21:33N 40°42' W 074°00'7 3.6
2016-Jun-30 19:29N 40°35' W 074°03'5 5.6
2016-Jun-30 18:34N 40°40' W 074°01'5 1.4
2016-Jun-30 14:33N 40°35' W 074°02'6 6.1
2016-Jun-30 13:34N 40°41' W 074°01'6 5.9
2016-Jun-30 12:34N 40°35' W 074°03'5 4.8
2016-Jun-30 11:34N 40°40' W 074°02'7 0.6
2016-Jun-30 00:08N 40°32' W 074°02'1220.8
2016-Jun-29 23:34N 40°44' W 073°58'2 1.2
2016-Jun-29 21:33N 40°42' W 074°00'7 6.7
2016-Jun-29 20:34N 40°36' W 074°03'1 0.7
2016-Jun-29 19:21N 40°35' W 074°03'1013.0
2016-Jun-29 18:33N 40°45' W 073°58'0 0.0
2016-Jun-29 17:33N 40°45' W 073°58'0 0.0
2016-Jun-29 16:34N 40°45' W 073°58'0 0.0
2016-Jun-29 15:33N 40°45' W 073°58'0 0.0
2016-Jun-29 14:33N 40°45' W 073°58'4 4.0
2016-Jun-29 13:34N 40°41' W 074°01'7 6.9
2016-Jun-29 12:31N 40°34' W 074°02'5 5.8
2016-Jun-29 11:34N 40°40' W 074°02'5 0.5
2016-Jun-29 00:03N 40°34' W 074°03'1020.0
2016-Jun-28 23:34N 40°43' W 073°58'3 1.3
2016-Jun-28 21:33N 40°42' W 074°01'4 4.3
2016-Jun-28 20:33N 40°38' W 074°03'3 2.9
2016-Jun-28 19:21N 40°34' W 074°02'1113.2
2016-Jun-28 18:33N 40°45' W 073°58'0 0.0
2016-Jun-28 17:33N 40°45' W 073°58'0 0.0
2016-Jun-28 16:33N 40°45' W 073°58'0 0.0
2016-Jun-28 15:33N 40°45' W 073°58'0 0.0
2016-Jun-28 14:33N 40°45' W 073°58'3 3.1
2016-Jun-28 13:34N 40°42' W 074°00'8 7.4
2016-Jun-28 12:29N 40°34' W 074°03'6 6.3
2016-Jun-28 11:34N 40°40' W 074°02'4 0.3
2016-Jun-27 23:33N 40°43' W 073°58'3 1.3
2016-Jun-27 21:34N 40°41' W 074°01'3 3.3
2016-Jun-27 20:33N 40°38' W 074°02'4 3.1
2016-Jun-27 19:19N 40°34' W 074°03'1114.2
2016-Jun-27 18:33N 40°45' W 073°58'0 0.0
2016-Jun-27 17:33N 40°45' W 073°58'0 0.0
2016-Jun-27 16:31N 40°45' W 073°58'0 0.0
2016-Jun-27 15:31N 40°45' W 073°58'0 0.0
2016-Jun-27 14:33N 40°45' W 073°58'3 2.9
2016-Jun-27 13:34N 40°42' W 074°00'1111.0
2016-Jun-27 12:33N 40°31' W 074°02'8 7.9
2016-Jun-27 11:33N 40°39' W 074°02'14 3.5
2016-Jun-27 07:33N 40°25' W 074°02'0 0.0
2016-Jun-27 04:30N 40°25' W 074°02'0 0.0
2016-Jun-27 03:33N 40°25' W 074°02'0 0.0
2016-Jun-27 02:29N 40°25' W 074°02'2 0.4
2016-Jun-26 21:29N 40°27' W 074°01'1819.3
2016-Jun-26 20:33N 40°44' W 073°58'2015.0
2016-Jun-26 19:13N 40°25' W 073°60'10 2.7
2016-Jun-26 15:19N 40°35' W 074°03'1013.7
2016-Jun-26 14:33N 40°45' W 073°58'10 5.1
2016-Jun-26 12:34N 40°35' W 074°03'10 9.7
2016-Jun-26 11:34N 40°44' W 073°58'1916.8
2016-Jun-26 10:26N 40°25' W 074°00'1 0.5
2016-Jun-26 07:33N 40°25' W 074°02'0 0.0
2016-Jun-26 03:33N 40°25' W 074°02'10 1.6
2016-Jun-25 21:16N 40°35' W 074°02'1013.8
2016-Jun-25 20:33N 40°44' W 073°58'10 1.8
2016-Jun-25 15:05N 40°35' W 074°02'1019.7
2016-Jun-25 14:33N 40°45' W 073°58'8 3.9
2016-Jun-25 12:33N 40°38' W 074°03'6 5.8
2016-Jun-25 11:34N 40°43' W 073°59'10 0.8
2016-Jun-24 23:13N 40°33' W 074°02'1218.0
2016-Jun-24 22:33N 40°45' W 073°58'3 1.4
2016-Jun-24 20:34N 40°42' W 074°00'3 2.8
2016-Jun-24 19:31N 40°45' W 073°58'0 0.0
2016-Jun-24 18:33N 40°45' W 073°58'0 0.0
2016-Jun-24 17:33N 40°45' W 073°58'0 0.0
2016-Jun-24 16:33N 40°45' W 073°58'0 0.0
2016-Jun-24 15:33N 40°45' W 073°58'0 0.0
2016-Jun-24 14:33N 40°45' W 073°58'5 4.9
2016-Jun-24 13:34N 40°40' W 074°01'4 3.8
2016-Jun-24 12:33N 40°37' W 074°03'3 3.3
2016-Jun-24 11:34N 40°40' W 074°02'  
Track history (hours):
 
Tides and Currents Weather Stations Pressure Air Temp Water Temp Dewpoint Dewpoint Depression Visibility Wind Speed Wind Dir Waves Ship Positions

Seastreak Highlands

Owner: Seastreak llc, atlantic highlands, NJ. More information available from US FCC via Universal Licensing System and Coast Guard Vessel Documentation Center.

Last reported at 2016-Jul-01 00:10 UTC. Time now 2016-Jul-01 08:18 UTC.
Position N 40°33' W 074°02'.

Length 44 m.

Type: High speed craft. MMSI: 367347670.

Date/timePositionNaut miles runAvg speedWind from/ knotsBaromVisibWave heightAir tempDewpointWater temp
2016-Jul-01 00:10N 40°33' W 074°02'1219.7
2016-Jun-30 23:33N 40°45' W 073°58'3 1.5
2016-Jun-30 21:33N 40°42' W 074°00'7 3.6
2016-Jun-30 19:29N 40°35' W 074°03'5 5.6
2016-Jun-30 18:34N 40°40' W 074°01'5 1.4
2016-Jun-30 14:33N 40°35' W 074°02'6 6.1
2016-Jun-30 13:34N 40°41' W 074°01'6 5.9
2016-Jun-30 12:34N 40°35' W 074°03'5 4.8
2016-Jun-30 11:34N 40°40' W 074°02'7 0.6
2016-Jun-30 00:08N 40°32' W 074°02'1220.8
2016-Jun-29 23:34N 40°44' W 073°58'2 1.2
2016-Jun-29 21:33N 40°42' W 074°00'7 6.7
2016-Jun-29 20:34N 40°36' W 074°03'1 0.7
2016-Jun-29 19:21N 40°35' W 074°03'1013.0
2016-Jun-29 18:33N 40°45' W 073°58'0 0.0
2016-Jun-29 17:33N 40°45' W 073°58'0 0.0
2016-Jun-29 16:34N 40°45' W 073°58'0 0.0
2016-Jun-29 15:33N 40°45' W 073°58'0 0.0
2016-Jun-29 14:33N 40°45' W 073°58'4 4.0
2016-Jun-29 13:34N 40°41' W 074°01'7 6.9
2016-Jun-29 12:31N 40°34' W 074°02'5 5.8
2016-Jun-29 11:34N 40°40' W 074°02'5 0.5
2016-Jun-29 00:03N 40°34' W 074°03'1020.0
2016-Jun-28 23:34N 40°43' W 073°58'3 1.3
2016-Jun-28 21:33N 40°42' W 074°01'4 4.3
2016-Jun-28 20:33N 40°38' W 074°03'3 2.9
2016-Jun-28 19:21N 40°34' W 074°02'1113.2
2016-Jun-28 18:33N 40°45' W 073°58'0 0.0
2016-Jun-28 17:33N 40°45' W 073°58'0 0.0
2016-Jun-28 16:33N 40°45' W 073°58'0 0.0
2016-Jun-28 15:33N 40°45' W 073°58'0 0.0
2016-Jun-28 14:33N 40°45' W 073°58'3 3.1
2016-Jun-28 13:34N 40°42' W 074°00'8 7.4
2016-Jun-28 12:29N 40°34' W 074°03'6 6.3
2016-Jun-28 11:34N 40°40' W 074°02'4 0.3
2016-Jun-27 23:33N 40°43' W 073°58'3 1.3
2016-Jun-27 21:34N 40°41' W 074°01'3 3.3
2016-Jun-27 20:33N 40°38' W 074°02'4 3.1
2016-Jun-27 19:19N 40°34' W 074°03'1114.2
2016-Jun-27 18:33N 40°45' W 073°58'0 0.0
2016-Jun-27 17:33N 40°45' W 073°58'0 0.0
2016-Jun-27 16:31N 40°45' W 073°58'0 0.0
2016-Jun-27 15:31N 40°45' W 073°58'0 0.0
2016-Jun-27 14:33N 40°45' W 073°58'3 2.9
2016-Jun-27 13:34N 40°42' W 074°00'1111.0
2016-Jun-27 12:33N 40°31' W 074°02'8 7.9
2016-Jun-27 11:33N 40°39' W 074°02'14 3.5
2016-Jun-27 07:33N 40°25' W 074°02'0 0.0
2016-Jun-27 04:30N 40°25' W 074°02'0 0.0
2016-Jun-27 03:33N 40°25' W 074°02'0 0.0
2016-Jun-27 02:29N 40°25' W 074°02'2 0.4
2016-Jun-26 21:29N 40°27' W 074°01'1819.3
2016-Jun-26 20:33N 40°44' W 073°58'2015.0
2016-Jun-26 19:13N 40°25' W 073°60'10 2.7
2016-Jun-26 15:19N 40°35' W 074°03'1013.7
2016-Jun-26 14:33N 40°45' W 073°58'10 5.1
2016-Jun-26 12:34N 40°35' W 074°03'10 9.7
2016-Jun-26 11:34N 40°44' W 073°58'1916.8
2016-Jun-26 10:26N 40°25' W 074°00'1 0.5
2016-Jun-26 07:33N 40°25' W 074°02'0 0.0
2016-Jun-26 03:33N 40°25' W 074°02'10 1.6
2016-Jun-25 21:16N 40°35' W 074°02'1013.8
2016-Jun-25 20:33N 40°44' W 073°58'10 1.8
2016-Jun-25 15:05N 40°35' W 074°02'1019.7
2016-Jun-25 14:33N 40°45' W 073°58'8 3.9
2016-Jun-25 12:33N 40°38' W 074°03'6 5.8
2016-Jun-25 11:34N 40°43' W 073°59'10 0.8
2016-Jun-24 23:13N 40°33' W 074°02'1218.0
2016-Jun-24 22:33N 40°45' W 073°58'3 1.4
2016-Jun-24 20:34N 40°42' W 074°00'3 2.8
2016-Jun-24 19:31N 40°45' W 073°58'0 0.0
2016-Jun-24 18:33N 40°45' W 073°58'0 0.0
2016-Jun-24 17:33N 40°45' W 073°58'0 0.0
2016-Jun-24 16:33N 40°45' W 073°58'0 0.0
2016-Jun-24 15:33N 40°45' W 073°58'0 0.0
2016-Jun-24 14:33N 40°45' W 073°58'5 4.9
2016-Jun-24 13:34N 40°40' W 074°01'4 3.8
2016-Jun-24 12:33N 40°37' W 074°03'3 3.3
2016-Jun-24 11:34N 40°40' W 074°02'  

Dump ship's entire track history